Aérodrome :
LOGIN :

S'inscrire | Disclaimer

   EN    FR    IT 

 










Légende :    VFR   VFR Marginal   IFR   IFR Intensif   IFR Très Intensif
Visi : 
Plafond : 
>= 8 km
>= 3000ft
5 à 8 km
1000 à 3000 ft
1500m à 5 km
500 à 1000 ft
800 à 1500m
200 à 500 ft
< 800m
< 200 ft
Symboles :   Orages  Brouillard  Fortes neiges  Fortes précipitations  Vent > 20 kt
SIGMETs :   Divers  Orages  Givrage  Turbulence  Onde Orograph.  Cendres Volcan.







- Altitude de l'aérodrome : 584 ft
- Voir les cartes d'approche


LFPV - Villacoublay Vélizy

DERNIER METAR :
  • 212130Z AUTO 04014KT CAVOK 14/04 Q1027 NOSIG

METARs EXPIRÉS :
  • 212100Z AUTO 02010KT 350V050 9999 FEW044 14/04 Q1027 NOSIG
  • 212030Z AUTO 02012KT CAVOK 15/04 Q1027 NOSIG
  • 212000Z AUTO 03014KT 360V060 CAVOK 15/04 Q1026
  • 211930Z AUTO 03012KT 350V050 CAVOK 16/05 Q1026 NOSIG
  • 211900Z AUTO 03012KT 360V060 CAVOK 17/05 Q1025 NOSIG

TAF TAF LFPV
Valide du 21 à 21h jusqu'au 22 à 21h UTC


212000Z 2121/2221 03010KT CAVOK
Pas de NOTAMs connus pour ce terrain.



MET'MAP, la Météo Aéronautique d'un coup d'oeil ! - Copyright ORBIFLY Décembre 2007 - Disclaimer

ORBIFLY MET'MAP TEAM :

Programmation & Développement : Alexandra Zaïnal
Conception & Développement : Baudouin d'Aumeries
Co-Programmation & Développement : Marc-Olivier Méhu
Soutien technique & logistique : Manuel Goepfert

Contact : metmap@orbifly.com




SOURCES & CREDITS :

   NOAA